sensor_id;sensor_type;location;lat;lon;timestamp;pressure;altitude;pressure_sealevel;temperature;humidity
47913;BME280;33676;51.006;17.180;2022-09-13T00:01:22;100073.35;;;11.92;98.48
47913;BME280;33676;51.006;17.180;2022-09-13T00:03:50;100074.13;;;11.87;98.53
47913;BME280;33676;51.006;17.180;2022-09-13T00:06:20;100073.58;;;11.83;98.89
47913;BME280;33676;51.006;17.180;2022-09-13T00:08:49;100069.48;;;11.80;99.32
47913;BME280;33676;51.006;17.180;2022-09-13T00:11:22;100063.48;;;11.79;99.53
47913;BME280;33676;51.006;17.180;2022-09-13T00:13:53;100059.64;;;11.76;99.70
47913;BME280;33676;51.006;17.180;2022-09-13T00:16:26;100060.20;;;11.75;99.85
47913;BME280;33676;51.006;17.180;2022-09-13T00:18:55;100055.06;;;11.74;100.00
47913;BME280;33676;51.006;17.180;2022-09-13T00:21:23;100059.52;;;11.73;99.99
47913;BME280;33676;51.006;17.180;2022-09-13T00:23:53;100056.48;;;11.72;100.00
47913;BME280;33676;51.006;17.180;2022-09-13T00:26:27;100059.09;;;11.70;100.00
47913;BME280;33676;51.006;17.180;2022-09-13T00:28:57;100054.40;;;11.68;100.00
47913;BME280;33676;51.006;17.180;2022-09-13T00:31:27;100052.41;;;11.66;100.00
47913;BME280;33676;51.006;17.180;2022-09-13T00:33:59;100047.56;;;11.66;100.00
47913;BME280;33676;51.006;17.180;2022-09-13T00:36:28;100046.40;;;11.65;100.00
47913;BME280;33676;51.006;17.180;2022-09-13T00:38:58;100044.54;;;11.64;99.99
47913;BME280;33676;51.006;17.180;2022-09-13T00:41:27;100041.86;;;11.65;100.00
47913;BME280;33676;51.006;17.180;2022-09-13T00:44:00;100041.04;;;11.66;100.00
47913;BME280;33676;51.006;17.180;2022-09-13T00:46:45;100037.86;;;11.65;100.00
47913;BME280;33676;51.006;17.180;2022-09-13T00:49:18;100041.75;;;11.64;100.00
47913;BME280;33676;51.006;17.180;2022-09-13T00:51:52;100042.05;;;11.63;100.00
47913;BME280;33676;51.006;17.180;2022-09-13T00:54:26;100037.98;;;11.61;100.00
47913;BME280;33676;51.006;17.180;2022-09-13T00:56:58;100037.87;;;11.56;100.00
47913;BME280;33676;51.006;17.180;2022-09-13T00:59:35;100030.29;;;11.53;100.00
47913;BME280;33676;51.006;17.180;2022-09-13T01:02:05;100030.84;;;11.48;100.00
47913;BME280;33676;51.006;17.180;2022-09-13T01:04:35;100027.94;;;11.44;100.00
47913;BME280;33676;51.006;17.180;2022-09-13T01:07:07;100029.04;;;11.39;100.00
47913;BME280;33676;51.006;17.180;2022-09-13T01:09:40;100030.70;;;11.36;100.00
47913;BME280;33676;51.006;17.180;2022-09-13T01:12:46;100035.55;;;11.33;100.00
47913;BME280;33676;51.006;17.180;2022-09-13T01:15:16;100032.79;;;11.30;100.00
47913;BME280;33676;51.006;17.180;2022-09-13T01:17:44;100030.90;;;11.27;100.00
47913;BME280;33676;51.006;17.180;2022-09-13T01:20:14;100034.17;;;11.26;100.00
47913;BME280;33676;51.006;17.180;2022-09-13T01:30:47;100022.85;;;11.25;100.00
47913;BME280;33676;51.006;17.180;2022-09-13T01:37:03;100025.08;;;11.24;100.00
47913;BME280;33676;51.006;17.180;2022-09-13T01:46:22;100010.88;;;11.16;100.00
47913;BME280;33676;51.006;17.180;2022-09-13T01:49:14;100008.30;;;11.13;100.00
47913;BME280;33676;51.006;17.180;2022-09-13T01:51:59;100003.66;;;11.10;100.00
47913;BME280;33676;51.006;17.180;2022-09-13T01:54:46;100003.09;;;11.07;100.00
47913;BME280;33676;51.006;17.180;2022-09-13T01:57:19;99996.77;;;11.03;100.00
47913;BME280;33676;51.006;17.180;2022-09-13T02:00:04;99993.40;;;10.99;100.00
47913;BME280;33676;51.006;17.180;2022-09-13T02:03:28;99988.48;;;10.95;100.00
47913;BME280;33676;51.006;17.180;2022-09-13T02:05:44;99986.86;;;10.92;100.00
47913;BME280;33676;51.006;17.180;2022-09-13T02:08:24;99984.48;;;10.89;100.00
47913;BME280;33676;51.006;17.180;2022-09-13T02:11:05;99979.55;;;10.85;100.00
47913;BME280;33676;51.006;17.180;2022-09-13T02:14:04;99977.39;;;10.82;100.00
47913;BME280;33676;51.006;17.180;2022-09-13T02:17:04;99972.29;;;10.76;100.00
47913;BME280;33676;51.006;17.180;2022-09-13T02:19:52;99963.03;;;10.70;100.00
47913;BME280;33676;51.006;17.180;2022-09-13T02:22:34;99962.90;;;10.63;100.00
47913;BME280;33676;51.006;17.180;2022-09-13T02:25:13;99960.77;;;10.57;100.00
47913;BME280;33676;51.006;17.180;2022-09-13T02:27:47;99960.69;;;10.51;100.00
47913;BME280;33676;51.006;17.180;2022-09-13T02:30:17;99957.56;;;10.47;100.00
47913;BME280;33676;51.006;17.180;2022-09-13T02:33:47;99957.77;;;10.42;100.00
47913;BME280;33676;51.006;17.180;2022-09-13T02:36:27;99955.65;;;10.39;100.00
47913;BME280;33676;51.006;17.180;2022-09-13T02:38:59;99954.80;;;10.37;100.00
47913;BME280;33676;51.006;17.180;2022-09-13T02:41:51;99950.63;;;10.34;100.00
47913;BME280;33676;51.006;17.180;2022-09-13T02:44:31;99946.44;;;10.32;100.00
47913;BME280;33676;51.006;17.180;2022-09-13T02:58:43;99933.52;;;10.12;100.00
47913;BME280;33676;51.006;17.180;2022-09-13T03:01:14;99929.41;;;10.09;100.00
47913;BME280;33676;51.006;17.180;2022-09-13T03:03:42;99929.80;;;10.07;100.00
47913;BME280;33676;51.006;17.180;2022-09-13T03:06:12;99930.30;;;10.05;100.00
47913;BME280;33676;51.006;17.180;2022-09-13T03:08:40;99920.77;;;10.02;100.00
47913;BME280;33676;51.006;17.180;2022-09-13T03:11:32;99922.30;;;10.00;100.00
47913;BME280;33676;51.006;17.180;2022-09-13T03:19:55;99905.67;;;9.92;100.00
47913;BME280;33676;51.006;17.180;2022-09-13T03:35:01;99891.89;;;9.79;100.00
47913;BME280;33676;51.006;17.180;2022-09-13T03:37:54;99888.94;;;9.77;100.00
47913;BME280;33676;51.006;17.180;2022-09-13T03:43:39;99876.05;;;9.72;100.00
47913;BME280;33676;51.006;17.180;2022-09-13T03:46:47;99875.68;;;9.70;100.00
47913;BME280;33676;51.006;17.180;2022-09-13T03:49:19;99870.27;;;9.68;100.00
47913;BME280;33676;51.006;17.180;2022-09-13T03:51:50;99872.05;;;9.68;100.00
47913;BME280;33676;51.006;17.180;2022-09-13T03:54:30;99869.13;;;9.67;100.00
47913;BME280;33676;51.006;17.180;2022-09-13T03:57:18;99866.84;;;9.67;100.00
47913;BME280;33676;51.006;17.180;2022-09-13T03:59:52;99866.22;;;9.66;100.00
47913;BME280;33676;51.006;17.180;2022-09-13T04:02:24;99865.67;;;9.65;100.00
47913;BME280;33676;51.006;17.180;2022-09-13T04:04:52;99865.47;;;9.63;100.00
47913;BME280;33676;51.006;17.180;2022-09-13T04:07:23;99868.89;;;9.61;100.00
47913;BME280;33676;51.006;17.180;2022-09-13T04:09:52;99868.33;;;9.59;100.00
47913;BME280;33676;51.006;17.180;2022-09-13T04:12:20;99869.52;;;9.58;100.00
47913;BME280;33676;51.006;17.180;2022-09-13T04:14:49;99871.00;;;9.57;100.00
47913;BME280;33676;51.006;17.180;2022-09-13T04:17:17;99870.50;;;9.56;100.00
47913;BME280;33676;51.006;17.180;2022-09-13T04:19:45;99868.96;;;9.56;100.00
47913;BME280;33676;51.006;17.180;2022-09-13T04:22:14;99866.22;;;9.56;100.00
47913;BME280;33676;51.006;17.180;2022-09-13T04:24:43;99861.70;;;9.55;100.00
47913;BME280;33676;51.006;17.180;2022-09-13T04:27:12;99862.39;;;9.55;100.00
47913;BME280;33676;51.006;17.180;2022-09-13T04:29:40;99863.13;;;9.55;100.00
47913;BME280;33676;51.006;17.180;2022-09-13T04:32:08;99865.67;;;9.56;100.00
47913;BME280;33676;51.006;17.180;2022-09-13T04:34:37;99866.14;;;9.56;100.00
47913;BME280;33676;51.006;17.180;2022-09-13T04:37:07;99868.64;;;9.58;100.00
47913;BME280;33676;51.006;17.180;2022-09-13T04:39:36;99869.68;;;9.60;100.00
47913;BME280;33676;51.006;17.180;2022-09-13T04:42:05;99868.94;;;9.63;100.00
47913;BME280;33676;51.006;17.180;2022-09-13T04:44:34;99866.86;;;9.65;100.00
47913;BME280;33676;51.006;17.180;2022-09-13T04:47:03;99867.80;;;9.68;100.00
47913;BME280;33676;51.006;17.180;2022-09-13T04:49:31;99866.33;;;9.72;100.00
47913;BME280;33676;51.006;17.180;2022-09-13T04:52:01;99865.71;;;9.77;100.00
47913;BME280;33676;51.006;17.180;2022-09-13T04:54:29;99865.58;;;9.83;100.00
47913;BME280;33676;51.006;17.180;2022-09-13T04:56:58;99865.17;;;9.89;100.00
47913;BME280;33676;51.006;17.180;2022-09-13T04:59:26;99866.54;;;9.96;100.00
47913;BME280;33676;51.006;17.180;2022-09-13T05:01:55;99864.61;;;10.03;100.00
47913;BME280;33676;51.006;17.180;2022-09-13T05:04:23;99864.09;;;10.10;100.00
47913;BME280;33676;51.006;17.180;2022-09-13T05:06:51;99862.61;;;10.14;100.00
47913;BME280;33676;51.006;17.180;2022-09-13T05:09:19;99857.08;;;10.20;100.00
47913;BME280;33676;51.006;17.180;2022-09-13T05:11:48;99862.77;;;10.28;100.00
47913;BME280;33676;51.006;17.180;2022-09-13T05:14:16;99858.06;;;10.34;100.00
47913;BME280;33676;51.006;17.180;2022-09-13T05:16:45;99863.25;;;10.41;100.00
47913;BME280;33676;51.006;17.180;2022-09-13T05:19:13;99866.59;;;10.46;100.00
47913;BME280;33676;51.006;17.180;2022-09-13T05:21:41;99864.73;;;10.54;100.00
47913;BME280;33676;51.006;17.180;2022-09-13T05:24:10;99866.70;;;10.61;100.00
47913;BME280;33676;51.006;17.180;2022-09-13T05:26:38;99867.64;;;10.69;100.00
47913;BME280;33676;51.006;17.180;2022-09-13T05:29:07;99864.30;;;10.75;100.00
47913;BME280;33676;51.006;17.180;2022-09-13T05:31:40;99864.67;;;10.83;100.00
47913;BME280;33676;51.006;17.180;2022-09-13T05:34:13;99861.38;;;10.91;100.00
47913;BME280;33676;51.006;17.180;2022-09-13T05:36:43;99864.52;;;10.99;100.00
47913;BME280;33676;51.006;17.180;2022-09-13T05:39:14;99860.30;;;11.07;100.00
47913;BME280;33676;51.006;17.180;2022-09-13T05:42:05;99865.59;;;11.19;100.00
47913;BME280;33676;51.006;17.180;2022-09-13T05:44:33;99861.15;;;11.28;100.00
47913;BME280;33676;51.006;17.180;2022-09-13T05:47:01;99860.30;;;11.38;100.00
47913;BME280;33676;51.006;17.180;2022-09-13T05:49:30;99859.71;;;11.48;100.00
47913;BME280;33676;51.006;17.180;2022-09-13T05:51:58;99854.27;;;11.58;100.00
47913;BME280;33676;51.006;17.180;2022-09-13T05:54:27;99854.91;;;11.68;100.00
47913;BME280;33676;51.006;17.180;2022-09-13T05:56:55;99852.52;;;11.78;100.00
47913;BME280;33676;51.006;17.180;2022-09-13T05:59:24;99844.77;;;11.88;100.00
47913;BME280;33676;51.006;17.180;2022-09-13T06:02:09;99849.91;;;11.99;100.00
47913;BME280;33676;51.006;17.180;2022-09-13T06:04:37;99841.46;;;12.10;100.00
47913;BME280;33676;51.006;17.180;2022-09-13T06:07:10;99835.70;;;12.22;100.00
47913;BME280;33676;51.006;17.180;2022-09-13T06:09:41;99827.75;;;12.32;100.00
47913;BME280;33676;51.006;17.180;2022-09-13T06:12:11;99823.47;;;12.42;100.00
47913;BME280;33676;51.006;17.180;2022-09-13T06:14:39;99818.95;;;12.55;100.00
47913;BME280;33676;51.006;17.180;2022-09-13T06:17:07;99818.75;;;12.66;100.00
47913;BME280;33676;51.006;17.180;2022-09-13T06:19:36;99815.26;;;12.77;100.00
47913;BME280;33676;51.006;17.180;2022-09-13T06:25:40;99809.76;;;13.02;100.00
47913;BME280;33676;51.006;17.180;2022-09-13T06:28:09;99809.66;;;13.10;100.00
47913;BME280;33676;51.006;17.180;2022-09-13T06:30:37;99799.94;;;13.18;100.00
47913;BME280;33676;51.006;17.180;2022-09-13T06:33:06;99798.89;;;13.27;100.00
47913;BME280;33676;51.006;17.180;2022-09-13T06:35:35;99803.71;;;13.37;100.00
47913;BME280;33676;51.006;17.180;2022-09-13T06:38:09;99799.34;;;13.48;100.00
47913;BME280;33676;51.006;17.180;2022-09-13T06:40:37;99798.15;;;13.58;100.00
47913;BME280;33676;51.006;17.180;2022-09-13T06:43:05;99798.39;;;13.68;100.00
47913;BME280;33676;51.006;17.180;2022-09-13T06:45:34;99795.85;;;13.78;100.00
47913;BME280;33676;51.006;17.180;2022-09-13T06:48:02;99791.56;;;13.87;100.00
47913;BME280;33676;51.006;17.180;2022-09-13T06:50:31;99785.90;;;13.95;100.00
47913;BME280;33676;51.006;17.180;2022-09-13T06:52:59;99778.78;;;14.01;100.00
47913;BME280;33676;51.006;17.180;2022-09-13T06:55:27;99776.89;;;14.07;100.00
47913;BME280;33676;51.006;17.180;2022-09-13T06:57:57;99778.26;;;14.14;100.00
47913;BME280;33676;51.006;17.180;2022-09-13T07:00:26;99779.15;;;14.25;100.00
47913;BME280;33676;51.006;17.180;2022-09-13T07:02:54;99784.85;;;14.34;100.00
47913;BME280;33676;51.006;17.180;2022-09-13T07:05:22;99787.40;;;14.42;100.00
47913;BME280;33676;51.006;17.180;2022-09-13T07:07:50;99784.83;;;14.52;100.00
47913;BME280;33676;51.006;17.180;2022-09-13T07:10:19;99785.98;;;14.60;100.00
47913;BME280;33676;51.006;17.180;2022-09-13T07:12:47;99788.82;;;14.70;100.00
47913;BME280;33676;51.006;17.180;2022-09-13T07:15:15;99785.77;;;14.79;100.00
47913;BME280;33676;51.006;17.180;2022-09-13T07:17:43;99788.30;;;14.90;100.00
47913;BME280;33676;51.006;17.180;2022-09-13T07:20:12;99789.73;;;15.00;100.00
47913;BME280;33676;51.006;17.180;2022-09-13T07:22:40;99785.73;;;15.09;100.00
47913;BME280;33676;51.006;17.180;2022-09-13T07:25:08;99785.46;;;15.20;100.00
47913;BME280;33676;51.006;17.180;2022-09-13T07:27:53;99783.10;;;15.34;100.00
47913;BME280;33676;51.006;17.180;2022-09-13T07:30:22;99780.73;;;15.51;100.00
47913;BME280;33676;51.006;17.180;2022-09-13T07:32:53;99774.04;;;15.68;100.00
47913;BME280;33676;51.006;17.180;2022-09-13T07:35:22;99774.35;;;15.84;100.00
47913;BME280;33676;51.006;17.180;2022-09-13T07:37:50;99777.56;;;16.04;100.00
47913;BME280;33676;51.006;17.180;2022-09-13T07:40:18;99773.41;;;16.20;100.00
47913;BME280;33676;51.006;17.180;2022-09-13T07:42:47;99770.02;;;16.35;100.00
47913;BME280;33676;51.006;17.180;2022-09-13T07:45:26;99765.14;;;16.53;100.00
47913;BME280;33676;51.006;17.180;2022-09-13T07:47:55;99775.25;;;16.72;100.00
47913;BME280;33676;51.006;17.180;2022-09-13T07:50:24;99779.17;;;16.89;100.00
47913;BME280;33676;51.006;17.180;2022-09-13T07:52:52;99779.27;;;17.10;100.00
47913;BME280;33676;51.006;17.180;2022-09-13T07:55:22;99777.94;;;17.31;100.00
47913;BME280;33676;51.006;17.180;2022-09-13T07:57:52;99780.89;;;17.51;100.00
47913;BME280;33676;51.006;17.180;2022-09-13T08:00:23;99778.30;;;17.77;100.00
47913;BME280;33676;51.006;17.180;2022-09-13T08:02:53;99770.71;;;18.01;100.00
47913;BME280;33676;51.006;17.180;2022-09-13T08:05:24;99773.47;;;18.21;100.00
47913;BME280;33676;51.006;17.180;2022-09-13T08:07:56;99772.34;;;18.43;100.00
47913;BME280;33676;51.006;17.180;2022-09-13T08:10:26;99772.67;;;18.66;100.00
47913;BME280;33676;51.006;17.180;2022-09-13T08:12:56;99771.68;;;18.81;100.00
47913;BME280;33676;51.006;17.180;2022-09-13T08:15:26;99771.61;;;18.95;100.00
47913;BME280;33676;51.006;17.180;2022-09-13T08:17:54;99770.99;;;19.04;100.00
47913;BME280;33676;51.006;17.180;2022-09-13T08:21:17;99766.20;;;19.13;100.00
47913;BME280;33676;51.006;17.180;2022-09-13T08:23:46;99760.16;;;19.29;100.00
47913;BME280;33676;51.006;17.180;2022-09-13T08:26:16;99756.66;;;19.37;100.00
47913;BME280;33676;51.006;17.180;2022-09-13T08:28:44;99758.46;;;19.41;100.00
47913;BME280;33676;51.006;17.180;2022-09-13T08:31:15;99757.05;;;19.47;99.94
47913;BME280;33676;51.006;17.180;2022-09-13T08:33:46;99756.05;;;19.55;99.79
47913;BME280;33676;51.006;17.180;2022-09-13T08:36:19;99748.73;;;19.67;99.74
47913;BME280;33676;51.006;17.180;2022-09-13T08:38:54;99749.73;;;19.77;99.06
47913;BME280;33676;51.006;17.180;2022-09-13T08:41:45;99742.11;;;19.90;98.82
47913;BME280;33676;51.006;17.180;2022-09-13T08:44:53;99747.13;;;20.08;98.57
47913;BME280;33676;51.006;17.180;2022-09-13T08:47:43;99748.27;;;20.26;98.45
47913;BME280;33676;51.006;17.180;2022-09-13T08:50:17;99749.84;;;20.41;97.28
47913;BME280;33676;51.006;17.180;2022-09-13T08:53:18;99746.32;;;20.52;96.43
47913;BME280;33676;51.006;17.180;2022-09-13T09:05:21;99741.23;;;21.21;94.76
47913;BME280;33676;51.006;17.180;2022-09-13T09:10:56;99741.59;;;21.57;94.31
47913;BME280;33676;51.006;17.180;2022-09-13T09:19:54;99727.92;;;22.37;93.55
47913;BME280;33676;51.006;17.180;2022-09-13T09:22:34;99725.25;;;22.72;93.30
47913;BME280;33676;51.006;17.180;2022-09-13T09:25:03;99721.44;;;23.03;92.56
47913;BME280;33676;51.006;17.180;2022-09-13T09:27:32;99718.45;;;23.23;91.00
47913;BME280;33676;51.006;17.180;2022-09-13T09:30:00;99716.85;;;23.39;90.64
47913;BME280;33676;51.006;17.180;2022-09-13T09:35:34;99700.59;;;23.69;87.80
47913;BME280;33676;51.006;17.180;2022-09-13T09:41:00;99691.48;;;24.23;88.26
47913;BME280;33676;51.006;17.180;2022-09-13T09:43:47;99696.17;;;24.46;87.39
47913;BME280;33676;51.006;17.180;2022-09-13T09:46:23;99697.30;;;24.55;85.94
47913;BME280;33676;51.006;17.180;2022-09-13T09:49:11;99700.95;;;24.54;84.06
47913;BME280;33676;51.006;17.180;2022-09-13T09:52:04;99695.81;;;24.42;83.03
47913;BME280;33676;51.006;17.180;2022-09-13T09:54:34;99697.84;;;24.32;81.75
47913;BME280;33676;51.006;17.180;2022-09-13T09:57:04;99691.29;;;24.27;81.99
47913;BME280;33676;51.006;17.180;2022-09-13T09:59:35;99686.18;;;24.26;82.37
47913;BME280;33676;51.006;17.180;2022-09-13T10:02:24;99685.60;;;24.28;82.22
47913;BME280;33676;51.006;17.180;2022-09-13T10:04:58;99674.48;;;24.27;81.95
47913;BME280;33676;51.006;17.180;2022-09-13T10:07:33;99664.86;;;24.20;81.74
47913;BME280;33676;51.006;17.180;2022-09-13T10:10:24;99665.92;;;24.09;80.63
47913;BME280;33676;51.006;17.180;2022-09-13T10:12:55;99661.73;;;23.93;81.05
47913;BME280;33676;51.006;17.180;2022-09-13T10:15:28;99663.71;;;23.82;80.91
47913;BME280;33676;51.006;17.180;2022-09-13T10:18:23;99659.02;;;23.67;81.09
47913;BME280;33676;51.006;17.180;2022-09-13T10:23:47;99654.36;;;23.25;80.24
47913;BME280;33676;51.006;17.180;2022-09-13T10:26:23;99649.95;;;23.05;80.70
47913;BME280;33676;51.006;17.180;2022-09-13T10:29:04;99643.78;;;22.88;80.91
47913;BME280;33676;51.006;17.180;2022-09-13T10:31:41;99633.44;;;22.72;80.76
47913;BME280;33676;51.006;17.180;2022-09-13T10:34:19;99636.16;;;22.53;80.70
47913;BME280;33676;51.006;17.180;2022-09-13T10:37:01;99634.64;;;22.40;80.77
47913;BME280;33676;51.006;17.180;2022-09-13T10:39:34;99632.56;;;22.31;81.01
47913;BME280;33676;51.006;17.180;2022-09-13T10:42:06;99635.98;;;22.29;81.45
47913;BME280;33676;51.006;17.180;2022-09-13T10:48:16;99631.92;;;22.35;81.60
47913;BME280;33676;51.006;17.180;2022-09-13T10:51:04;99627.48;;;22.42;81.85
47913;BME280;33676;51.006;17.180;2022-09-13T10:53:41;99621.45;;;22.52;82.00
47913;BME280;33676;51.006;17.180;2022-09-13T10:56:25;99622.63;;;22.63;82.14
47913;BME280;33676;51.006;17.180;2022-09-13T10:59:23;99621.47;;;22.72;82.31
47913;BME280;33676;51.006;17.180;2022-09-13T11:16:33;99613.83;;;23.06;79.56
47913;BME280;33676;51.006;17.180;2022-09-13T11:19:39;99609.94;;;23.03;80.07
47913;BME280;33676;51.006;17.180;2022-09-13T11:25:20;99604.74;;;23.17;80.73
47913;BME280;33676;51.006;17.180;2022-09-13T11:31:08;99597.03;;;23.19;80.22
47913;BME280;33676;51.006;17.180;2022-09-13T11:45:49;99576.91;;;23.45;79.25
47913;BME280;33676;51.006;17.180;2022-09-13T11:48:42;99573.77;;;23.63;79.52
47913;BME280;33676;51.006;17.180;2022-09-13T11:55:01;99569.61;;;23.95;78.57
47913;BME280;33676;51.006;17.180;2022-09-13T11:57:39;99565.40;;;24.10;78.53
47913;BME280;33676;51.006;17.180;2022-09-13T12:03:10;99560.58;;;24.65;78.50
47913;BME280;33676;51.006;17.180;2022-09-13T12:05:51;99565.12;;;25.27;78.28
47913;BME280;33676;51.006;17.180;2022-09-13T12:08:34;99568.19;;;25.49;77.78
47913;BME280;33676;51.006;17.180;2022-09-13T12:11:12;99559.66;;;25.44;76.74
47913;BME280;33676;51.006;17.180;2022-09-13T12:13:56;99555.31;;;25.26;76.07
47913;BME280;33676;51.006;17.180;2022-09-13T12:16:49;99556.48;;;25.07;76.30
47913;BME280;33676;51.006;17.180;2022-09-13T12:19:26;99562.08;;;24.89;76.61
47913;BME280;33676;51.006;17.180;2022-09-13T12:21:58;99557.75;;;24.75;76.43
47913;BME280;33676;51.006;17.180;2022-09-13T12:24:47;99563.96;;;24.65;75.57
47913;BME280;33676;51.006;17.180;2022-09-13T12:27:39;99559.11;;;24.58;75.69
47913;BME280;33676;51.006;17.180;2022-09-13T12:30:27;99551.39;;;24.54;75.37
47913;BME280;33676;51.006;17.180;2022-09-13T12:32:59;99547.88;;;24.45;75.35
47913;BME280;33676;51.006;17.180;2022-09-13T12:44:59;99530.36;;;24.12;74.96
47913;BME280;33676;51.006;17.180;2022-09-13T12:47:55;99531.55;;;23.95;74.96
47913;BME280;33676;51.006;17.180;2022-09-13T12:59:37;99529.12;;;23.22;75.51
47913;BME280;33676;51.006;17.180;2022-09-13T13:02:40;99526.59;;;23.03;75.67
47913;BME280;33676;51.006;17.180;2022-09-13T13:05:32;99516.42;;;22.89;75.63
47913;BME280;33676;51.006;17.180;2022-09-13T13:16:27;99518.64;;;22.59;76.36
47913;BME280;33676;51.006;17.180;2022-09-13T13:19:01;99522.41;;;22.54;76.77
47913;BME280;33676;51.006;17.180;2022-09-13T13:21:38;99520.27;;;22.52;77.07
47913;BME280;33676;51.006;17.180;2022-09-13T13:26:53;99514.04;;;22.58;78.01
47913;BME280;33676;51.006;17.180;2022-09-13T13:29:24;99509.66;;;22.67;78.15
47913;BME280;33676;51.006;17.180;2022-09-13T13:34:46;99499.42;;;22.91;78.75
47913;BME280;33676;51.006;17.180;2022-09-13T13:40:12;99497.41;;;23.10;78.42
47913;BME280;33676;51.006;17.180;2022-09-13T13:42:48;99489.98;;;23.16;78.58
47913;BME280;33676;51.006;17.180;2022-09-13T13:45:24;99493.63;;;23.14;77.81
47913;BME280;33676;51.006;17.180;2022-09-13T13:48:13;99479.91;;;23.11;77.72
47913;BME280;33676;51.006;17.180;2022-09-13T13:51:25;99484.09;;;23.08;77.82
47913;BME280;33676;51.006;17.180;2022-09-13T13:54:01;99482.97;;;23.09;78.28
47913;BME280;33676;51.006;17.180;2022-09-13T13:56:48;99482.13;;;23.11;78.34
47913;BME280;33676;51.006;17.180;2022-09-13T13:59:27;99479.98;;;23.13;78.23
47913;BME280;33676;51.006;17.180;2022-09-13T14:01:59;99483.05;;;23.09;77.79
47913;BME280;33676;51.006;17.180;2022-09-13T14:04:57;99480.20;;;23.05;77.67
47913;BME280;33676;51.006;17.180;2022-09-13T14:10:21;99469.92;;;22.96;77.39
47913;BME280;33676;51.006;17.180;2022-09-13T14:16:07;99456.21;;;22.93;77.79
47913;BME280;33676;51.006;17.180;2022-09-13T14:19:19;99445.55;;;22.94;77.88
47913;BME280;33676;51.006;17.180;2022-09-13T14:22:23;99444.73;;;22.93;78.22
47913;BME280;33676;51.006;17.180;2022-09-13T14:24:54;99447.83;;;22.97;78.27
47913;BME280;33676;51.006;17.180;2022-09-13T14:27:25;99439.97;;;22.97;78.51
47913;BME280;33676;51.006;17.180;2022-09-13T14:30:01;99437.57;;;22.98;78.47
47913;BME280;33676;51.006;17.180;2022-09-13T14:32:54;99435.55;;;23.04;78.56
47913;BME280;33676;51.006;17.180;2022-09-13T14:35:36;99433.05;;;23.06;78.42
47913;BME280;33676;51.006;17.180;2022-09-13T14:38:25;99435.43;;;23.07;78.36
47913;BME280;33676;51.006;17.180;2022-09-13T14:41:28;99438.81;;;23.06;78.46
47913;BME280;33676;51.006;17.180;2022-09-13T14:44:16;99441.98;;;23.06;78.68
47913;BME280;33676;51.006;17.180;2022-09-13T14:47:18;99443.48;;;23.03;78.80
47913;BME280;33676;51.006;17.180;2022-09-13T14:49:59;99440.59;;;23.01;78.94
47913;BME280;33676;51.006;17.180;2022-09-13T14:52:35;99436.05;;;22.98;78.91
47913;BME280;33676;51.006;17.180;2022-09-13T14:55:15;99436.27;;;22.98;79.03
47913;BME280;33676;51.006;17.180;2022-09-13T14:57:51;99431.45;;;22.96;79.06
47913;BME280;33676;51.006;17.180;2022-09-13T15:00:21;99430.20;;;22.94;79.06
47913;BME280;33676;51.006;17.180;2022-09-13T15:02:57;99427.38;;;22.93;79.32
47913;BME280;33676;51.006;17.180;2022-09-13T15:05:31;99423.33;;;22.90;79.20
47913;BME280;33676;51.006;17.180;2022-09-13T15:11:03;99421.08;;;22.93;79.50
47913;BME280;33676;51.006;17.180;2022-09-13T15:13:33;99418.58;;;22.97;79.43
47913;BME280;33676;51.006;17.180;2022-09-13T15:16:28;99412.69;;;23.03;79.48
47913;BME280;33676;51.006;17.180;2022-09-13T15:21:50;99410.80;;;23.30;79.31
47913;BME280;33676;51.006;17.180;2022-09-13T15:24:29;99414.09;;;24.29;78.67
47913;BME280;33676;51.006;17.180;2022-09-13T15:27:05;99409.56;;;25.94;78.16
47913;BME280;33676;51.006;17.180;2022-09-13T15:29:34;99407.73;;;27.32;76.33
47913;BME280;33676;51.006;17.180;2022-09-13T15:32:04;99412.59;;;27.62;74.29
47913;BME280;33676;51.006;17.180;2022-09-13T15:34:44;99411.20;;;27.32;73.94
47913;BME280;33676;51.006;17.180;2022-09-13T15:37:14;99411.14;;;27.24;73.42
47913;BME280;33676;51.006;17.180;2022-09-13T15:39:49;99406.04;;;27.08;72.66
47913;BME280;33676;51.006;17.180;2022-09-13T15:42:51;99401.66;;;27.49;72.03
47913;BME280;33676;51.006;17.180;2022-09-13T15:45:21;99406.92;;;27.36;71.75
47913;BME280;33676;51.006;17.180;2022-09-13T15:47:51;99405.77;;;27.16;71.07
47913;BME280;33676;51.006;17.180;2022-09-13T15:50:31;99400.73;;;26.96;70.97
47913;BME280;33676;51.006;17.180;2022-09-13T15:53:00;99401.14;;;26.48;70.91
47913;BME280;33676;51.006;17.180;2022-09-13T15:55:29;99401.49;;;26.04;71.18
47913;BME280;33676;51.006;17.180;2022-09-13T15:57:58;99397.08;;;25.64;71.35
47913;BME280;33676;51.006;17.180;2022-09-13T16:00:26;99399.10;;;25.34;71.33
47913;BME280;33676;51.006;17.180;2022-09-13T16:02:55;99395.66;;;24.83;70.86
47913;BME280;33676;51.006;17.180;2022-09-13T16:05:24;99389.88;;;24.45;71.91
47913;BME280;33676;51.006;17.180;2022-09-13T16:07:52;99390.17;;;24.30;72.32
47913;BME280;33676;51.006;17.180;2022-09-13T16:10:26;99390.61;;;24.39;72.29
47913;BME280;33676;51.006;17.180;2022-09-13T16:12:55;99396.02;;;24.53;73.39
47913;BME280;33676;51.006;17.180;2022-09-13T16:15:23;99390.58;;;24.48;74.06
47913;BME280;33676;51.006;17.180;2022-09-13T16:17:51;99390.01;;;24.57;74.46
47913;BME280;33676;51.006;17.180;2022-09-13T16:20:20;99385.66;;;24.73;74.46
47913;BME280;33676;51.006;17.180;2022-09-13T16:22:49;99383.48;;;25.45;74.04